This is the latest recevied weather packets stored in our database for station/object AI4ZL. If no packets are shown the sender has not sent any weather packets the latest 10 day(s).
| Time | Temp. | Humidity | Pressure | Rain* | Wind** | Luminosity | Snow |
|---|---|---|---|---|---|---|---|
| 1777297829 | 20° C | 91% | 1011.6 hPa | 0.25 mm | - | 102 W/m² | - |
| 1777296622 | 18.89° C | 93% | 1012 hPa | 0.76 mm | - | 60 W/m² | - |
| 1777289431 | 19.44° C | 78% | 1011.8 hPa | 0 mm | - | 7 W/m² | - |
| 1777286442 | 17.78° C | 80% | 1011.3 hPa | 0 mm | - | 0 W/m² | - |
| 1777282223 | 18.33° C | 79% | 1012.7 hPa | 0 mm | - | 0 W/m² | - |
| 1777281628 | 18.33° C | 79% | 1012.7 hPa | 0 mm | - | 0 W/m² | - |
| 1777280420 | 18.33° C | 78% | 1012 hPa | 0 mm | - | 0 W/m² | - |
| 1777279230 | 18.33° C | 79% | 1012.2 hPa | 0 mm | - | 0 W/m² | - |
| 1777278023 | 18.89° C | 79% | 1012.7 hPa | 0 mm | - | 0 W/m² | - |
| 1777273825 | 18.89° C | 77% | 1013.1 hPa | 0 mm | - | 0 W/m² | - |
| 1777272617 | 18.89° C | 78% | 1013.5 hPa | 0 mm | - | 0 W/m² | - |
| 1777270226 | 18.33° C | 81% | 1013.6 hPa | 0 mm | - | 0 W/m² | - |
| 1777266633 | 17.22° C | 83% | 1014.1 hPa | 0 mm | - | 0 W/m² | - |
| 1777266021 | 17.22° C | 84% | 1014 hPa | 0 mm | - | 0 W/m² | - |
| 1777262416 | 18.89° C | 75% | 1013.8 hPa | 0 mm | - | 0 W/m² | - |
| 1777261246 | 19.44° C | 74% | 1013.7 hPa | 0 mm | - | 0 W/m² | - |
| 1777258830 | 17.78° C | 81% | 1013.5 hPa | 0 mm | - | 0 W/m² | - |
| 1777255225 | 19.44° C | 74% | 1013.2 hPa | 0 mm | - | 0 W/m² | - |
| 1777254630 | 20° C | 73% | 1013 hPa | 0 mm | - | 0 W/m² | - |
| 1777253423 | 20.56° C | 69% | 1013 hPa | 0 mm | - | 0 W/m² | - |
| 1777246826 | 25.56° C | 53% | 1012.7 hPa | 0 mm | - | 59 W/m² | - |
| 1777241302 | 26.67° C | 51% | 1012.9 hPa | 0 mm | - | 453 W/m² | - |
| 1777236952 | 27.22° C | 45% | 1012.9 hPa | 0 mm | - | 289 W/m² | - |
| 1777229128 | 27.78° C | 49% | 1014 hPa | 0 mm | - | 542 W/m² | - |
| 1777227921 | 27.78° C | 48% | 1014.4 hPa | 0 mm | - | 738 W/m² | - |
* Rain latest hour (hover to see other rain measurements)
** Current wind speed in m/s (hover to see current wind gust speed)